createdAt,value
2019-05-02T00:01:42.044Z,7.80
2019-05-02T00:04:12.479Z,8.00
2019-05-02T00:06:44.209Z,8.00
2019-05-02T00:09:13.439Z,7.90
2019-05-02T00:11:42.874Z,7.70
2019-05-02T00:14:12.674Z,7.50
2019-05-02T00:16:45.251Z,7.40
2019-05-02T00:19:13.929Z,7.30
2019-05-02T00:21:43.223Z,7.20
2019-05-02T00:24:13.775Z,7.20
2019-05-02T00:26:42.696Z,7.20
2019-05-02T00:29:11.571Z,7.10
2019-05-02T00:31:45.027Z,7.10
2019-05-02T00:34:11.010Z,7.00
2019-05-02T00:36:39.927Z,6.90
2019-05-02T00:39:13.625Z,6.90
2019-05-02T00:41:40.483Z,6.80
2019-05-02T00:44:10.938Z,6.70
2019-05-02T00:46:40.030Z,6.80
2019-05-02T00:49:08.883Z,6.90
2019-05-02T00:51:37.662Z,7.00
2019-05-02T00:54:06.575Z,6.90
2019-05-02T00:56:35.338Z,6.90
2019-05-02T00:59:11.990Z,6.90
2019-05-02T01:02:04.791Z,6.80
2019-05-02T01:04:54.446Z,6.70
2019-05-02T01:07:25.569Z,6.70
2019-05-02T01:09:54.130Z,6.60
2019-05-02T01:12:26.745Z,6.60
2019-05-02T01:14:53.494Z,6.50
2019-05-02T01:17:26.158Z,6.40
2019-05-02T01:19:53.963Z,6.50
2019-05-02T01:22:22.770Z,6.40
2019-05-02T01:24:51.636Z,6.40
2019-05-02T01:27:29.772Z,6.40
2019-05-02T01:30:17.287Z,6.40
2019-05-02T01:33:17.638Z,6.40
2019-05-02T01:36:10.926Z,6.30
2019-05-02T01:38:43.495Z,6.20
2019-05-02T01:41:13.527Z,6.10
2019-05-02T01:43:42.489Z,6.00
2019-05-02T01:46:11.482Z,5.90
2019-05-02T01:48:45.724Z,5.90
2019-05-02T01:51:12.084Z,5.90
2019-05-02T01:53:41.122Z,6.00
2019-05-02T01:56:09.987Z,6.10
2019-05-02T01:58:38.846Z,6.10
2019-05-02T02:01:07.735Z,6.10
2019-05-02T02:03:45.289Z,6.10
2019-05-02T02:06:11.277Z,6.00
2019-05-02T02:08:40.336Z,6.00
2019-05-02T02:11:09.123Z,6.10
2019-05-02T02:13:38.039Z,6.10
2019-05-02T02:16:07.200Z,6.10
2019-05-02T02:18:40.628Z,6.10
2019-05-02T02:21:28.994Z,6.00
2019-05-02T02:24:11.542Z,6.00
2019-05-02T02:26:48.253Z,6.00
2019-05-02T02:29:17.315Z,6.00
2019-05-02T02:31:48.509Z,5.90
2019-05-02T02:34:21.197Z,5.90
2019-05-02T02:36:47.448Z,5.90
2019-05-02T02:39:17.163Z,5.90
2019-05-02T02:41:52.045Z,5.90
2019-05-02T02:44:40.090Z,5.90
2019-05-02T02:47:12.186Z,5.90
2019-05-02T02:49:40.316Z,5.90
2019-05-02T02:52:09.175Z,5.90
2019-05-02T02:54:43.318Z,5.90
2019-05-02T02:57:21.853Z,5.90
2019-05-02T02:59:39.175Z,5.80
2019-05-02T03:02:10.132Z,5.80
2019-05-02T03:04:44.126Z,5.80
2019-05-02T03:07:09.244Z,5.80
2019-05-02T03:09:38.055Z,5.70
2019-05-02T03:12:24.915Z,5.80
2019-05-02T03:14:56.203Z,5.80
2019-05-02T03:17:28.075Z,5.60
2019-05-02T03:20:00.966Z,5.50
2019-05-02T03:22:26.520Z,5.40
2019-05-02T03:24:55.570Z,5.20
2019-05-02T03:27:29.859Z,5.10
2019-05-02T03:29:55.907Z,5.00
2019-05-02T03:32:32.763Z,5.00
2019-05-02T03:34:55.759Z,5.00
2019-05-02T03:37:24.894Z,5.10
2019-05-02T03:39:57.179Z,5.20
2019-05-02T03:42:24.573Z,5.30
2019-05-02T03:44:56.207Z,5.40
2019-05-02T03:47:24.080Z,5.50
2019-05-02T03:49:53.024Z,5.60
2019-05-02T03:52:21.815Z,5.60
2019-05-02T03:54:52.484Z,5.50
2019-05-02T03:57:32.448Z,5.40
2019-05-02T03:59:52.799Z,5.40
2019-05-02T04:02:22.256Z,5.40
2019-05-02T04:04:54.405Z,5.30
2019-05-02T04:07:21.721Z,5.20
2019-05-02T04:09:50.950Z,5.20
2019-05-02T04:12:21.896Z,5.20
2019-05-02T04:14:55.396Z,5.20
2019-05-02T04:17:22.368Z,5.20
2019-05-02T04:19:51.316Z,5.30
2019-05-02T04:22:20.692Z,5.40
2019-05-02T04:24:54.636Z,5.40
2019-05-02T04:27:20.549Z,5.40
2019-05-02T04:29:49.644Z,5.40
2019-05-02T04:32:18.527Z,5.50
2019-05-02T04:34:48.971Z,5.50
2019-05-02T04:37:18.115Z,5.50
2019-05-02T04:39:49.133Z,5.60
2019-05-02T04:42:22.193Z,5.60
2019-05-02T04:45:12.157Z,5.70
2019-05-02T04:47:21.958Z,5.70
2019-05-02T04:49:52.005Z,5.80
2019-05-02T04:52:21.325Z,5.80
2019-05-02T04:54:50.302Z,5.80
2019-05-02T04:57:20.065Z,5.90
2019-05-02T04:59:50.467Z,6.00
2019-05-02T05:02:29.283Z,6.10
2019-05-02T05:04:50.537Z,6.20
2019-05-02T05:07:19.389Z,6.30
2019-05-02T05:09:56.922Z,6.40
2019-05-02T05:12:19.418Z,6.50
2019-05-02T05:14:48.631Z,6.60
2019-05-02T05:17:19.866Z,6.60
2019-05-02T05:19:48.848Z,6.70
2019-05-02T05:22:18.416Z,6.70
2019-05-02T05:24:58.446Z,6.80
2019-05-02T05:27:27.655Z,6.80
2019-05-02T05:30:02.265Z,6.90
2019-05-02T05:32:28.182Z,7.00
2019-05-02T05:34:58.031Z,7.00
2019-05-02T05:37:29.402Z,7.10
2019-05-02T05:39:58.069Z,7.20
2019-05-02T05:42:29.980Z,7.30
2019-05-02T05:44:58.342Z,7.50
2019-05-02T05:47:27.594Z,7.60
2019-05-02T05:49:57.542Z,7.70
2019-05-02T05:52:27.204Z,7.80
2019-05-02T05:54:57.904Z,7.90
2019-05-02T05:57:28.041Z,8.30
2019-05-02T05:59:58.395Z,8.50
2019-05-02T06:02:28.412Z,8.70
2019-05-02T06:05:02.244Z,9.00
2019-05-02T06:07:32.854Z,9.30
2019-05-02T06:10:02.425Z,9.40
2019-05-02T06:12:31.820Z,9.40
2019-05-02T06:15:01.907Z,9.60
2019-05-02T06:17:31.222Z,9.80
2019-05-02T06:19:59.998Z,10.10
2019-05-02T06:22:28.767Z,10.30
2019-05-02T06:24:57.639Z,10.40
2019-05-02T06:27:30.344Z,10.40
2019-05-02T06:29:57.380Z,10.30
2019-05-02T06:32:26.275Z,10.40
2019-05-02T06:34:55.046Z,10.40
2019-05-02T06:37:24.312Z,10.40
2019-05-02T06:39:53.091Z,10.50
2019-05-02T06:42:22.321Z,10.70
2019-05-02T06:44:54.944Z,10.80
2019-05-02T06:47:21.904Z,10.80
2019-05-02T06:49:50.727Z,10.80
2019-05-02T06:52:19.605Z,10.90
2019-05-02T06:54:48.467Z,10.90
2019-05-02T06:57:19.016Z,11.00
2019-05-02T06:59:50.026Z,11.00
2019-05-02T07:02:18.665Z,11.20
2019-05-02T07:04:47.519Z,11.30
2019-05-02T07:07:17.123Z,11.30
2019-05-02T07:09:45.916Z,11.30
2019-05-02T07:12:16.622Z,11.50
2019-05-02T07:14:45.910Z,11.60
2019-05-02T07:17:36.436Z,11.70
2019-05-02T07:20:05.335Z,11.70
2019-05-02T07:22:38.760Z,11.80
2019-05-02T07:25:08.924Z,12.00
2019-05-02T07:27:39.287Z,12.30
2019-05-02T07:30:10.781Z,12.40
2019-05-02T07:32:39.630Z,12.50
2019-05-02T07:35:09.493Z,12.50
2019-05-02T07:37:38.382Z,12.80
2019-05-02T07:40:07.612Z,13.00
2019-05-02T07:42:36.850Z,13.30
2019-05-02T07:45:26.259Z,13.60
2019-05-02T07:47:55.049Z,13.70
2019-05-02T07:50:24.004Z,13.70
2019-05-02T07:52:52.779Z,13.70
2019-05-02T07:55:21.602Z,14.00
2019-05-02T07:57:50.394Z,14.30
2019-05-02T08:00:21.119Z,14.80
2019-05-02T08:02:50.010Z,15.10
2019-05-02T08:05:21.649Z,15.40
2019-05-02T08:07:53.403Z,15.80
2019-05-02T08:10:22.217Z,16.20
2019-05-02T08:12:50.818Z,16.20
2019-05-02T08:15:19.754Z,16.60
2019-05-02T08:17:53.165Z,16.80
2019-05-02T08:20:19.834Z,17.40
2019-05-02T08:22:50.474Z,18.00
2019-05-02T08:25:19.691Z,18.20
2019-05-02T08:27:53.610Z,18.20
2019-05-02T08:30:25.746Z,18.70
2019-05-02T08:32:54.659Z,19.00
2019-05-02T08:35:23.501Z,19.30
2019-05-02T08:37:52.432Z,19.60
2019-05-02T08:40:21.286Z,19.90
2019-05-02T08:42:50.145Z,20.50
2019-05-02T08:45:19.058Z,21.10
2019-05-02T08:47:47.839Z,21.40
2019-05-02T08:50:16.975Z,22.10
2019-05-02T08:52:48.014Z,22.40
2019-05-02T08:55:16.678Z,22.30
2019-05-02T08:57:45.475Z,22.60
2019-05-02T09:00:14.871Z,22.90
2019-05-02T09:02:43.734Z,22.50
2019-05-02T09:05:12.873Z,22.50
2019-05-02T09:07:43.101Z,22.80
2019-05-02T09:10:13.452Z,22.70
2019-05-02T09:12:45.475Z,22.70
2019-05-02T09:15:13.469Z,22.70
2019-05-02T09:17:46.107Z,22.90
2019-05-02T09:20:18.975Z,23.30
2019-05-02T09:22:46.499Z,23.20
2019-05-02T09:25:16.457Z,23.60
2019-05-02T09:27:45.218Z,23.80
2019-05-02T09:30:17.024Z,23.30
2019-05-02T09:32:45.169Z,23.40
2019-05-02T09:35:14.413Z,24.20
2019-05-02T09:37:43.354Z,24.30
2019-05-02T09:40:16.499Z,24.50
2019-05-02T09:42:43.279Z,24.30
2019-05-02T09:45:19.567Z,24.20
2019-05-02T09:47:58.231Z,25.00
2019-05-02T09:50:29.450Z,25.50
2019-05-02T09:52:49.604Z,25.70
2019-05-02T09:55:18.751Z,26.00
2019-05-02T09:57:47.666Z,26.40
2019-05-02T10:00:36.209Z,26.40
2019-05-02T10:03:04.267Z,26.70
2019-05-02T10:05:33.192Z,26.30
2019-05-02T10:08:05.404Z,26.30
2019-05-02T10:10:37.183Z,26.50
2019-05-02T10:13:03.626Z,26.80
2019-05-02T10:15:32.880Z,26.20
2019-05-02T10:18:11.093Z,26.30
2019-05-02T10:20:36.151Z,26.30
2019-05-02T10:23:03.903Z,25.90
2019-05-02T10:25:38.454Z,26.30
2019-05-02T10:28:03.733Z,25.90
2019-05-02T10:30:36.017Z,25.50
2019-05-02T10:33:04.914Z,24.50
2019-05-02T10:35:40.589Z,24.20
2019-05-02T10:38:09.517Z,24.60
2019-05-02T10:40:38.542Z,25.20
2019-05-02T10:43:07.356Z,25.50
2019-05-02T10:45:37.308Z,26.20
2019-05-02T10:48:06.158Z,25.50
2019-05-02T10:50:42.228Z,24.90
2019-05-02T10:53:15.526Z,25.10
2019-05-02T10:55:42.451Z,25.60
2019-05-02T10:58:12.442Z,25.80
2019-05-02T11:00:45.091Z,26.50
2019-05-02T11:03:37.973Z,27.50
2019-05-02T11:06:07.940Z,28.90
2019-05-02T11:08:42.073Z,29.60
2019-05-02T11:11:08.037Z,29.20
2019-05-02T11:14:07.442Z,28.30
2019-05-02T11:16:44.123Z,27.70
2019-05-02T11:19:17.866Z,27.30
2019-05-02T11:21:55.397Z,27.00
2019-05-02T11:24:17.155Z,26.70
2019-05-02T11:26:46.013Z,26.20
2019-05-02T11:29:14.947Z,25.80
2019-05-02T11:31:44.167Z,25.00
2019-05-02T11:34:13.089Z,24.20
2019-05-02T11:36:42.179Z,23.50
2019-05-02T11:39:19.601Z,23.20
2019-05-02T11:41:42.309Z,23.00
2019-05-02T11:44:12.129Z,22.60
2019-05-02T11:46:43.033Z,22.00
2019-05-02T11:49:12.212Z,21.60
2019-05-02T11:51:42.125Z,21.20
2019-05-02T11:54:13.039Z,20.80
2019-05-02T11:56:48.819Z,20.40
2019-05-02T11:59:14.780Z,20.30
2019-05-02T12:01:57.599Z,20.00
2019-05-02T12:04:17.877Z,19.90
2019-05-02T12:06:49.945Z,19.80
2019-05-02T12:09:19.325Z,19.90
2019-05-02T12:11:52.787Z,19.90
2019-05-02T12:14:18.595Z,20.00
2019-05-02T12:16:47.362Z,20.30
2019-05-02T12:19:16.227Z,21.10
2019-05-02T12:21:53.305Z,23.00
2019-05-02T12:24:22.328Z,24.60
2019-05-02T12:26:52.821Z,25.90
2019-05-02T12:29:22.075Z,26.80
2019-05-02T12:31:54.773Z,26.80
2019-05-02T12:34:21.744Z,27.00
2019-05-02T12:36:52.339Z,27.30
2019-05-02T12:39:22.151Z,27.90
2019-05-02T12:41:53.619Z,28.60
2019-05-02T12:44:23.620Z,29.00
2019-05-02T12:46:52.578Z,28.00
2019-05-02T12:49:26.943Z,27.20
2019-05-02T12:51:52.558Z,27.40
2019-05-02T12:54:22.066Z,27.40
2019-05-02T12:56:52.874Z,27.10
2019-05-02T12:59:22.504Z,27.20
2019-05-02T13:01:51.881Z,26.50
2019-05-02T13:04:22.813Z,26.10
2019-05-02T13:06:53.041Z,25.60
2019-05-02T13:09:23.448Z,25.10
2019-05-02T13:12:13.368Z,24.70
2019-05-02T13:14:42.434Z,24.50
2019-05-02T13:17:12.051Z,25.70
2019-05-02T13:19:48.824Z,26.60
2019-05-02T13:22:32.523Z,26.20
2019-05-02T13:25:10.213Z,25.10
2019-05-02T13:27:46.096Z,25.50
2019-05-02T13:30:12.441Z,26.00
2019-05-02T13:32:48.203Z,25.60
2019-05-02T13:35:34.906Z,24.50
2019-05-02T13:38:05.802Z,23.40
2019-05-02T13:40:41.805Z,22.70
2019-05-02T13:43:12.529Z,22.30
2019-05-02T13:46:04.538Z,22.30
2019-05-02T13:48:33.910Z,22.10
2019-05-02T13:51:03.911Z,21.90
2019-05-02T13:53:34.448Z,21.90
2019-05-02T13:56:21.941Z,21.90
2019-05-02T13:58:51.890Z,22.00
2019-05-02T14:01:22.442Z,22.50
2019-05-02T14:03:55.568Z,23.90
2019-05-02T14:06:29.545Z,24.80
2019-05-02T14:09:02.885Z,25.80
2019-05-02T14:11:55.526Z,26.60
2019-05-02T14:14:24.299Z,27.40
2019-05-02T14:16:53.399Z,27.60
2019-05-02T14:19:22.300Z,27.40
2019-05-02T14:21:51.882Z,28.00
2019-05-02T14:24:23.058Z,27.60
2019-05-02T14:26:52.679Z,27.10
2019-05-02T14:29:21.841Z,26.80
2019-05-02T14:31:51.976Z,26.90
2019-05-02T14:34:48.884Z,27.00
2019-05-02T14:37:17.771Z,27.60
2019-05-02T14:39:48.632Z,28.70
2019-05-02T14:42:22.163Z,29.10
2019-05-02T14:45:05.627Z,29.30
2019-05-02T14:47:19.727Z,29.80
2019-05-02T14:49:48.737Z,29.20
2019-05-02T14:52:17.583Z,28.80
2019-05-02T14:54:48.050Z,28.20
2019-05-02T14:57:25.407Z,27.40
2019-05-02T14:59:50.237Z,27.40
2019-05-02T15:02:39.373Z,28.00
2019-05-02T15:05:08.810Z,27.80
2019-05-02T15:07:38.556Z,26.80
2019-05-02T15:10:07.924Z,26.00
2019-05-02T15:12:36.676Z,25.20
2019-05-02T15:15:07.795Z,24.90
2019-05-02T15:17:37.872Z,25.30
2019-05-02T15:20:08.368Z,25.10
2019-05-02T15:22:37.608Z,24.40
2019-05-02T15:25:12.176Z,23.40
2019-05-02T15:27:42.272Z,22.90
2019-05-02T15:30:09.246Z,22.80
2019-05-02T15:32:57.123Z,23.10
2019-05-02T15:35:31.801Z,23.20
2019-05-02T15:38:02.515Z,23.20
2019-05-02T15:43:02.793Z,22.50
2019-05-02T15:45:32.135Z,22.50
2019-05-02T15:48:02.680Z,22.60
2019-05-02T15:50:32.627Z,22.60
2019-05-02T15:53:09.912Z,22.50
2019-05-02T15:55:39.723Z,22.30
2019-05-02T15:58:17.064Z,22.10
2019-05-02T16:00:51.914Z,21.90
2019-05-02T16:03:22.670Z,21.80
2019-05-02T16:05:52.473Z,21.70
2019-05-02T16:08:21.598Z,21.90
2019-05-02T16:10:50.594Z,22.30
2019-05-02T16:13:19.534Z,22.50
2019-05-02T16:15:48.448Z,22.30
2019-05-02T16:18:17.233Z,21.90
2019-05-02T16:21:05.540Z,21.80
2019-05-02T16:23:32.878Z,21.60
2019-05-02T16:26:02.083Z,21.40
2019-05-02T16:28:30.074Z,21.10
2019-05-02T16:31:01.603Z,20.80
2019-05-02T16:33:31.930Z,20.70
2019-05-02T16:36:02.561Z,20.60
2019-05-02T16:38:34.888Z,20.30
2019-05-02T16:41:09.730Z,20.30
2019-05-02T16:43:33.006Z,20.30
2019-05-02T16:46:02.072Z,20.50
2019-05-02T16:48:37.472Z,20.80
2019-05-02T16:51:02.176Z,21.20
2019-05-02T16:53:33.327Z,21.70
2019-05-02T16:56:05.558Z,22.10
2019-05-02T16:58:33.724Z,22.60
2019-05-02T17:01:03.602Z,23.10
2019-05-02T17:03:32.611Z,23.00
2019-05-02T17:06:01.764Z,22.50
2019-05-02T17:08:49.402Z,21.90
2019-05-02T17:11:27.805Z,21.70
2019-05-02T17:13:54.386Z,21.40
2019-05-02T17:16:23.249Z,20.80
2019-05-02T17:18:56.222Z,20.20
2019-05-02T17:21:26.982Z,19.90
2019-05-02T17:23:53.237Z,19.60
2019-05-02T17:26:22.857Z,19.50
2019-05-02T17:28:52.126Z,19.30
2019-05-02T17:31:23.083Z,19.20
2019-05-02T17:33:52.981Z,19.00
2019-05-02T17:36:28.501Z,18.80
2019-05-02T17:38:54.495Z,18.70
2019-05-02T17:41:24.596Z,18.40
2019-05-02T17:43:56.099Z,18.30
2019-05-02T17:46:26.005Z,18.30
2019-05-02T17:48:54.811Z,18.20
2019-05-02T17:51:38.214Z,18.10
2019-05-02T17:54:08.422Z,18.10
2019-05-02T17:56:37.345Z,18.00
2019-05-02T17:59:06.146Z,18.00
2019-05-02T18:01:38.342Z,17.90
2019-05-02T18:04:12.775Z,17.90
2019-05-02T18:06:37.808Z,17.80
2019-05-02T18:09:08.381Z,17.80
2019-05-02T18:11:37.906Z,17.80
2019-05-02T18:14:16.171Z,17.70
2019-05-02T18:16:39.288Z,17.10
2019-05-02T18:19:08.082Z,16.70
2019-05-02T18:21:36.889Z,16.20
2019-05-02T18:24:06.226Z,15.30
2019-05-02T18:26:35.112Z,14.30
2019-05-02T18:29:06.754Z,13.60
2019-05-02T18:31:39.529Z,13.10
2019-05-02T18:34:05.683Z,12.70
2019-05-02T18:36:34.584Z,12.40
2019-05-02T18:39:05.091Z,12.20
2019-05-02T18:41:37.314Z,12.10
2019-05-02T18:44:05.183Z,12.10
2019-05-02T18:46:36.805Z,12.20
2019-05-02T18:49:04.742Z,12.20
2019-05-02T18:51:33.662Z,12.10
2019-05-02T18:54:05.916Z,12.10
2019-05-02T18:56:40.871Z,12.00
2019-05-02T18:59:03.787Z,11.90
2019-05-02T19:01:32.649Z,11.90
2019-05-02T19:04:02.106Z,11.90
2019-05-02T19:06:33.191Z,11.90
2019-05-02T19:09:06.385Z,11.90
2019-05-02T19:11:35.412Z,11.90
2019-05-02T19:14:04.971Z,11.80
2019-05-02T19:16:33.847Z,11.80
2019-05-02T19:19:02.624Z,11.70
2019-05-02T19:21:35.635Z,11.70
2019-05-02T19:24:02.440Z,11.60
2019-05-02T19:26:32.599Z,11.60
2019-05-02T19:29:17.091Z,11.60
2019-05-02T19:31:47.079Z,11.50
2019-05-02T19:34:21.712Z,11.60
2019-05-02T19:36:46.435Z,11.60
2019-05-02T19:39:15.789Z,11.60
2019-05-02T19:41:45.714Z,11.60
2019-05-02T19:44:15.398Z,11.60
2019-05-02T19:46:44.738Z,11.60
2019-05-02T19:49:16.223Z,11.60
2019-05-02T19:51:44.533Z,11.60
2019-05-02T19:54:13.505Z,11.70
2019-05-02T19:56:47.090Z,11.70
2019-05-02T19:59:16.760Z,11.70
2019-05-02T20:01:44.003Z,11.70
2019-05-02T20:04:12.858Z,11.80
2019-05-02T20:06:41.889Z,11.70
2019-05-02T20:09:11.404Z,11.70
2019-05-02T20:11:40.281Z,11.80
2019-05-02T20:14:09.739Z,11.80
2019-05-02T20:16:52.908Z,11.80
2019-05-02T20:19:25.710Z,11.70
2019-05-02T20:22:09.305Z,11.70
2019-05-02T20:25:00.403Z,11.80
2019-05-02T20:27:28.790Z,11.80
2019-05-02T20:29:58.064Z,11.80
2019-05-02T20:32:27.023Z,11.70
2019-05-02T20:34:55.972Z,11.70
2019-05-02T20:37:24.981Z,11.60
2019-05-02T20:39:53.918Z,11.60
2019-05-02T20:42:22.936Z,11.60
2019-05-02T20:44:52.764Z,11.50
2019-05-02T20:47:25.102Z,11.40
2019-05-02T20:49:54.196Z,11.40
2019-05-02T20:52:23.269Z,11.40
2019-05-02T20:54:52.587Z,11.50
2019-05-02T20:57:21.675Z,11.50
2019-05-02T20:59:52.514Z,11.40
2019-05-02T21:02:21.737Z,11.40
2019-05-02T21:04:52.151Z,11.40
2019-05-02T21:07:29.672Z,11.40
2019-05-02T21:10:03.748Z,11.40
2019-05-02T21:12:32.867Z,11.40
2019-05-02T21:15:01.923Z,11.40
2019-05-02T21:17:32.694Z,11.40
2019-05-02T21:20:02.055Z,11.40
2019-05-02T21:22:32.720Z,11.40
2019-05-02T21:25:02.438Z,11.40
2019-05-02T21:27:32.379Z,11.30
2019-05-02T21:30:01.933Z,11.30
2019-05-02T21:32:32.162Z,11.20
2019-05-02T21:35:02.807Z,11.20
2019-05-02T21:37:32.053Z,11.30
2019-05-02T21:40:04.568Z,11.20
2019-05-02T21:42:33.436Z,11.30
2019-05-02T21:45:02.529Z,11.30
2019-05-02T21:47:31.888Z,11.30
2019-05-02T21:50:12.678Z,11.30
2019-05-02T21:52:46.886Z,11.20
2019-05-02T21:55:32.682Z,11.20
2019-05-02T21:58:02.749Z,11.20
2019-05-02T22:00:49.994Z,11.20
2019-05-02T22:03:19.108Z,11.20
2019-05-02T22:05:48.098Z,11.20
2019-05-02T22:08:16.998Z,11.20
2019-05-02T22:10:46.018Z,11.20
2019-05-02T22:13:15.267Z,11.20
2019-05-02T22:15:44.082Z,11.20
2019-05-02T22:18:12.966Z,11.20
2019-05-02T22:20:42.854Z,11.20
2019-05-02T22:23:11.972Z,11.20
2019-05-02T22:25:41.952Z,11.20
2019-05-02T22:28:12.601Z,11.10
2019-05-02T22:30:42.938Z,11.10
2019-05-02T22:33:12.219Z,11.10
2019-05-02T22:35:43.158Z,11.10
2019-05-02T22:38:31.913Z,11.10
2019-05-02T22:41:01.691Z,11.10
2019-05-02T22:43:32.712Z,11.00
2019-05-02T22:46:03.346Z,11.00
2019-05-02T22:48:32.404Z,11.00
2019-05-02T22:51:01.342Z,11.00
2019-05-02T22:53:32.128Z,11.00
2019-05-02T22:56:00.915Z,11.00
2019-05-02T22:58:29.815Z,11.00
2019-05-02T23:00:58.785Z,11.00
2019-05-02T23:03:27.633Z,11.00
2019-05-02T23:05:56.505Z,11.00
2019-05-02T23:08:25.342Z,11.00
2019-05-02T23:10:54.227Z,10.90
2019-05-02T23:13:24.653Z,10.90
2019-05-02T23:15:53.635Z,11.00
2019-05-02T23:18:22.776Z,11.00
2019-05-02T23:20:52.616Z,10.90
2019-05-02T23:23:24.264Z,11.00
2019-05-02T23:26:07.127Z,10.90
2019-05-02T23:28:37.321Z,11.00
2019-05-02T23:31:06.284Z,11.00
2019-05-02T23:33:53.113Z,11.00
2019-05-02T23:36:22.054Z,10.90
2019-05-02T23:38:52.201Z,10.90
2019-05-02T23:41:22.115Z,10.90
2019-05-02T23:43:52.443Z,10.90
2019-05-02T23:46:22.319Z,10.90
2019-05-02T23:48:52.630Z,10.90
2019-05-02T23:51:22.591Z,10.90
2019-05-02T23:53:52.800Z,10.90
2019-05-02T23:56:22.135Z,11.00
2019-05-02T23:58:52.005Z,10.90
